Time;durP1;ratioP1;P1;durP2;ratioP2;P2;SDS_P1;SDS_P2;PMS_P1;PMS_P2;Temp;Humidity;BMP_temperature;BMP_pressure;BME280_temperature;BME280_humidity;BME280_pressure;Samples;Min_cycle;Max_cycle;Signal;HPM_P1;HPM_P2
2023/08/09 00:01:58;;;;;;;8.37;4.17;;;;;;;-141.97;61.63;47486.41;5070646;28;20161;-78
2023/08/09 00:04:24;;;;;;;5.83;4.23;;;;;;;-141.97;61.33;47457.56;5070709;28;20216;-80
2023/08/09 00:06:49;;;;;;;6.87;4.43;;;;;;;-141.97;62.02;47474.88;5053084;28;20251;-80
2023/08/09 00:09:15;;;;;;;5.60;4.10;;;;;;;-141.97;62.10;47674.78;5070843;28;20235;-81
2023/08/09 00:11:40;;;;;;;5.53;3.83;;;;;;;-141.97;63.01;47430.66;5070532;28;20156;-80
2023/08/09 00:14:05;;;;;;;5.03;4.20;;;;;;;-141.97;63.68;47576.75;5070635;28;20239;-81
2023/08/09 00:16:31;;;;;;;8.13;4.37;;;;;;;-141.97;63.72;47482.56;5052928;28;20303;-81
2023/08/09 00:18:56;;;;;;;6.00;4.50;;;;;;;-141.97;64.08;47501.78;5071884;28;20181;-80
2023/08/09 00:21:22;;;;;;;5.50;4.77;;;;;;;-141.97;63.48;47407.59;5041137;28;20722;-81
2023/08/09 00:23:47;;;;;;;6.83;5.43;;;;;;;-141.97;63.10;47438.34;5048982;28;20192;-81
2023/08/09 00:26:13;;;;;;;6.97;5.20;;;;;;;-141.97;62.64;47634.41;5050280;28;20707;-81
2023/08/09 00:28:38;;;;;;;7.07;5.10;;;;;;;-141.97;62.93;47488.31;5049812;28;20252;-81
2023/08/09 00:31:03;;;;;;;9.87;5.40;;;;;;;-141.97;63.81;47524.84;5047950;28;20196;-81
2023/08/09 00:33:29;;;;;;;8.97;5.60;;;;;;;-141.97;65.04;47499.84;5049760;28;20525;-81
2023/08/09 00:35:54;;;;;;;8.37;5.70;;;;;;;-141.97;65.33;47513.31;5049988;28;20251;-81
2023/08/09 00:38:20;;;;;;;10.47;5.83;;;;;;;-141.97;66.20;47407.59;5031654;28;20299;-81
2023/08/09 00:40:45;;;;;;;8.27;5.60;;;;;;;-141.97;66.19;47507.53;5031547;28;20172;-81
2023/08/09 00:43:11;;;;;;;8.30;5.30;;;;;;;-141.97;65.64;47615.19;5050117;28;20169;-80
2023/08/09 00:45:41;;;;;;;8.83;5.83;;;;;;;-141.97;65.50;47511.38;5050168;28;20552;-81
2023/08/09 00:48:07;;;;;;;9.23;5.70;;;;;;;-141.97;64.80;47503.69;5049874;28;20171;-80
2023/08/09 00:50:32;;;;;;;9.57;5.90;;;;;;;-141.97;64.41;47432.59;5031953;28;20185;-80
2023/08/09 00:52:58;;;;;;;9.80;6.30;;;;;;;-141.97;65.18;47422.97;5050072;28;20169;-83
2023/08/09 00:55:24;;;;;;;8.33;5.70;;;;;;;-141.97;65.67;47484.47;5065295;28;20205;-84
2023/08/09 00:57:52;;;;;;;8.73;5.70;;;;;;;-141.97;65.15;47349.94;5049786;28;20591;-81
2023/08/09 01:00:17;;;;;;;7.90;5.20;;;;;;;-141.97;65.01;47384.53;5049745;28;20244;-81
2023/08/09 01:02:43;;;;;;;6.83;5.10;;;;;;;-141.97;64.86;47557.53;5043911;28;20272;-81
2023/08/09 01:05:08;;;;;;;8.27;5.00;;;;;;;-141.97;65.12;47434.50;5064606;28;20601;-81
2023/08/09 01:07:44;;;;;;;6.97;4.97;;;;;;;-141.97;64.95;47522.91;5031534;28;20252;-81
2023/08/09 01:10:25;;;;;;;6.87;4.73;;;;;;;-141.97;65.24;47338.41;5031371;28;20179;-81
2023/08/09 01:13:03;;;;;;;6.77;4.90;;;;;;;-141.97;65.32;47665.16;5037821;28;20232;-81
2023/08/09 01:15:32;;;;;;;7.40;4.70;;;;;;;-141.97;65.67;47501.78;5069711;28;20603;-81
2023/08/09 01:17:58;;;;;;;5.57;4.70;;;;;;;-141.97;65.23;47601.72;5069693;28;20168;-80
2023/08/09 01:20:25;;;;;;;5.17;4.47;;;;;;;-141.97;65.30;47680.53;5062322;28;20173;-80
2023/08/09 01:23:02;;;;;;;4.87;4.37;;;;;;;-141.97;65.41;47519.06;5049457;28;20572;-80
2023/08/09 01:25:30;;;;;;;5.20;4.33;;;;;;;-141.97;64.89;47451.81;5049491;28;20498;-80
2023/08/09 01:27:55;;;;;;;5.07;4.57;;;;;;;-141.97;65.39;47457.56;5049518;28;20209;-81
2023/08/09 01:30:21;;;;;;;6.73;4.60;;;;;;;-141.97;66.33;47492.16;5031242;28;20169;-80
2023/08/09 01:32:47;;;;;;;7.37;4.70;;;;;;;-141.97;66.28;47492.16;5031481;28;20260;-81
2023/08/09 01:35:13;;;;;;;5.53;4.80;;;;;;;-141.97;66.31;47511.38;5048775;28;20172;-81
2023/08/09 01:37:58;;;;;;;5.33;4.40;;;;;;;-141.97;66.32;47549.84;5050033;28;20268;-81
2023/08/09 01:40:24;;;;;;;5.60;4.77;;;;;;;-141.97;66.06;47509.47;5073725;28;20250;-81
2023/08/09 01:42:51;;;;;;;6.57;4.60;;;;;;;-141.97;66.11;47509.47;5074779;28;20602;-81
2023/08/09 01:45:19;;;;;;;5.33;4.60;;;;;;;-141.97;66.59;47557.53;5073361;28;20175;-81
2023/08/09 01:47:44;;;;;;;5.93;4.50;;;;;;;-141.97;66.71;47517.16;5073028;28;20157;-81
2023/08/09 01:50:18;;;;;;;5.73;4.80;;;;;;;-141.97;66.80;47692.06;5072691;28;20679;-81
2023/08/09 01:52:44;;;;;;;6.60;5.30;;;;;;;-141.97;66.59;47509.47;5054684;28;20253;-81
2023/08/09 01:55:14;;;;;;;6.63;5.50;;;;;;;-141.97;66.86;47472.94;5072288;28;20284;-81
2023/08/09 01:57:39;;;;;;;10.63;5.10;;;;;;;-141.97;67.14;47630.56;5058143;28;20192;-81
2023/08/09 02:00:08;;;;;;;6.73;5.23;;;;;;;-141.97;67.28;47499.84;5052701;28;20161;-81
2023/08/09 02:02:34;;;;;;;6.87;5.23;;;;;;;-141.97;69.83;47417.22;5053357;28;20540;-79
2023/08/09 02:04:59;;;;;;;6.17;5.20;;;;;;;-141.97;70.27;47521.00;5057349;28;20162;-80
2023/08/09 02:07:24;;;;;;;7.73;5.50;;;;;;;-141.97;71.03;47638.25;5052824;28;20350;-79
2023/08/09 02:09:50;;;;;;;7.50;5.83;;;;;;;-141.97;71.09;47605.56;5052523;28;20161;-80
2023/08/09 02:12:15;;;;;;;7.00;5.50;;;;;;;-141.97;71.57;47503.69;5052623;28;20158;-80
2023/08/09 02:14:41;;;;;;;7.73;5.57;;;;;;;-141.97;71.14;47430.66;5052364;28;20158;-80
2023/08/09 02:17:09;;;;;;;6.63;5.47;;;;;;;-141.97;70.73;47599.81;5051864;28;20649;-80
2023/08/09 02:19:35;;;;;;;6.77;5.90;;;;;;;-141.97;70.41;47515.22;5040824;28;20229;-81
2023/08/09 02:22:00;;;;;;;8.03;6.10;;;;;;;-141.97;69.80;47446.03;5052087;28;20168;-81
2023/08/09 02:24:26;;;;;;;7.57;6.07;;;;;;;-141.97;69.44;47522.91;5052132;28;20273;-81
2023/08/09 02:26:51;;;;;;;7.30;5.93;;;;;;;-141.97;69.09;47415.28;5033977;28;20637;-81
2023/08/09 02:29:17;;;;;;;8.00;6.47;;;;;;;-141.97;69.26;47607.50;5070883;28;20311;-81
2023/08/09 02:31:43;;;;;;;7.70;6.43;;;;;;;-141.97;70.24;47676.69;5072024;28;20161;-81
2023/08/09 02:34:08;;;;;;;7.20;6.07;;;;;;;-141.97;70.15;47603.66;5072064;28;20226;-81
2023/08/09 02:36:34;;;;;;;8.67;7.00;;;;;;;-141.97;70.27;47536.38;5072298;28;20683;-80
2023/08/09 02:38:59;;;;;;;10.10;7.10;;;;;;;-141.97;69.95;47499.84;5071779;28;20376;-80
2023/08/09 02:41:24;;;;;;;9.30;7.03;;;;;;;-141.97;69.92;47449.88;5084986;28;20220;-81
2023/08/09 02:43:50;;;;;;;9.07;7.27;;;;;;;-141.97;70.07;47519.06;5081609;28;20167;-81
2023/08/09 02:46:15;;;;;;;9.13;7.20;;;;;;;-141.97;69.79;47515.22;5071675;28;20674;-81
2023/08/09 02:48:41;;;;;;;8.27;7.00;;;;;;;-141.97;70.41;47513.31;5071436;28;20164;-81
2023/08/09 02:51:06;;;;;;;9.13;6.40;;;;;;;-141.97;71.33;47521.00;5070927;28;20576;-79
2023/08/09 02:53:34;;;;;;;8.63;6.47;;;;;;;-141.97;71.30;47521.00;5071576;28;20159;-81
2023/08/09 02:55:59;;;;;;;8.30;6.70;;;;;;;-141.97;71.41;47534.44;5053208;28;20209;-80
2023/08/09 02:58:25;;;;;;;12.70;6.40;;;;;;;-141.97;71.02;47521.00;5063029;28;20199;-80
2023/08/09 03:00:50;;;;;;;9.73;6.87;;;;;;;-141.97;71.75;47411.44;5071427;28;20186;-80
2023/08/09 03:03:16;;;;;;;17.53;6.80;;;;;;;-141.97;71.34;47490.25;5071009;28;20565;-81
2023/08/09 03:05:41;;;;;;;16.20;6.60;;;;;;;-141.97;71.87;47563.28;5071431;28;20652;-83
2023/08/09 03:08:07;;;;;;;12.53;7.20;;;;;;;-141.97;71.28;47511.38;5071252;28;20161;-82
2023/08/09 03:10:32;;;;;;;15.43;7.50;;;;;;;-141.97;71.21;47653.63;5053233;28;20612;-82
2023/08/09 03:12:58;;;;;;;10.13;7.03;;;;;;;-141.97;70.97;47351.88;5071554;28;20161;-82
2023/08/09 03:15:23;;;;;;;11.97;7.07;;;;;;;-141.97;71.02;47449.88;5071447;28;20160;-81
2023/08/09 03:17:49;;;;;;;14.00;7.50;;;;;;;-141.97;70.76;47515.22;5070953;28;20207;-81
2023/08/09 03:20:15;;;;;;;13.20;7.57;;;;;;;-141.97;70.42;47503.69;5086756;28;20176;-81
2023/08/09 03:22:45;;;;;;;15.50;7.13;;;;;;;-141.97;70.29;47509.47;5053156;28;20169;-81
2023/08/09 03:25:12;;;;;;;17.93;7.60;;;;;;;-141.97;70.03;47634.41;5071146;28;20168;-82
2023/08/09 03:27:38;;;;;;;14.70;7.90;;;;;;;-141.97;69.86;47622.88;5071282;28;20221;-81
2023/08/09 03:30:06;;;;;;;16.70;7.70;;;;;;;-141.97;70.14;47494.09;5087154;28;20196;-81
2023/08/09 03:32:31;;;;;;;10.60;7.10;;;;;;;-141.97;69.71;47522.91;5052852;28;20172;-81
2023/08/09 03:34:57;;;;;;;10.97;7.10;;;;;;;-141.97;70.21;47620.94;5052594;28;20233;-82
2023/08/09 03:37:22;;;;;;;13.47;7.50;;;;;;;-141.97;70.59;47440.28;5070552;28;20184;-82
2023/08/09 03:39:47;;;;;;;12.20;7.20;;;;;;;-141.97;70.67;47565.22;5052857;28;20232;-82
2023/08/09 03:42:13;;;;;;;12.07;7.77;;;;;;;-141.97;70.31;47565.22;5052968;28;20255;-83
2023/08/09 03:44:38;;;;;;;13.97;7.00;;;;;;;-141.97;70.20;47459.50;5052735;28;20509;-81
2023/08/09 03:47:04;;;;;;;11.50;7.00;;;;;;;-141.97;70.18;47517.16;5053197;28;20173;-81
2023/08/09 03:49:29;;;;;;;12.23;7.60;;;;;;;-141.97;71.10;47390.31;5070324;28;20173;-82
2023/08/09 03:51:55;;;;;;;10.87;7.53;;;;;;;-141.97;71.84;47396.06;5052699;28;20675;-81
2023/08/09 03:54:20;;;;;;;9.17;6.93;;;;;;;-141.97;71.94;47549.84;5052302;28;20172;-82
2023/08/09 03:56:46;;;;;;;10.30;7.00;;;;;;;-141.97;71.55;47326.88;5046401;28;20561;-82
2023/08/09 03:59:11;;;;;;;9.33;7.23;;;;;;;-141.97;72.12;47647.84;5065763;28;20176;-82
2023/08/09 04:01:37;;;;;;;8.80;7.13;;;;;;;-141.97;72.17;47446.03;5060913;28;20250;-81
2023/08/09 04:04:03;;;;;;;9.33;6.87;;;;;;;-141.97;72.72;47494.09;5088119;28;20163;-85
2023/08/09 04:06:29;;;;;;;10.90;7.50;;;;;;;-141.97;72.55;47582.50;5061655;28;20192;-80
2023/08/09 04:08:55;;;;;;;11.03;7.10;;;;;;;-141.97;72.24;47561.38;5062590;28;20187;-81
2023/08/09 04:11:20;;;;;;;10.13;7.43;;;;;;;-141.97;72.15;47569.06;5076605;28;20327;-80
2023/08/09 04:13:46;;;;;;;13.13;7.90;;;;;;;-141.97;71.60;47570.97;5070328;28;20161;-81
2023/08/09 04:16:11;;;;;;;12.57;9.50;;;;;;;-141.97;71.14;47386.47;5069555;28;20763;-81
2023/08/09 04:18:37;;;;;;;15.77;8.07;;;;;;;-141.97;71.00;47601.72;5085633;28;20645;-81
2023/08/09 04:21:02;;;;;;;13.07;8.00;;;;;;;-141.97;70.44;47609.41;5070527;28;20161;-80
2023/08/09 04:23:28;;;;;;;10.70;7.90;;;;;;;-141.97;70.54;47382.63;5069788;28;20238;-80
2023/08/09 04:25:54;;;;;;;14.13;8.47;;;;;;;-141.97;70.82;47384.53;5069834;28;20196;-81
2023/08/09 04:28:19;;;;;;;14.13;8.93;;;;;;;-141.97;70.74;47615.19;5051694;28;20275;-81
2023/08/09 04:30:46;;;;;;;23.90;16.60;;;;;;;-141.97;69.95;47638.25;5069840;28;20546;-81
2023/08/09 04:33:12;;;;;;;79.30;58.17;;;;;;;-141.97;69.46;47622.88;5085287;28;20221;-82
2023/08/09 04:35:43;;;;;;;72.93;51.70;;;;;;;-141.97;69.66;47467.19;5069666;28;20214;-83
2023/08/09 04:38:09;;;;;;;13.87;9.47;;;;;;;-141.97;69.17;47530.59;5069484;28;20220;-80
2023/08/09 04:40:36;;;;;;;11.83;8.60;;;;;;;-141.97;70.78;47536.38;5069928;28;20509;-81
2023/08/09 04:43:02;;;;;;;11.93;7.90;;;;;;;-141.97;70.34;47534.44;5070384;28;20152;-83
2023/08/09 04:45:28;;;;;;;11.00;7.87;;;;;;;-141.97;69.89;47399.91;5085765;28;20207;-81
2023/08/09 04:47:53;;;;;;;12.23;8.47;;;;;;;-141.97;70.45;47740.13;5069240;28;20208;-81
2023/08/09 04:50:20;;;;;;;10.13;7.80;;;;;;;-141.97;70.64;47595.97;5051609;28;20176;-82
2023/08/09 04:52:45;;;;;;;11.13;7.40;;;;;;;-141.97;70.10;47546.00;5069976;28;20157;-82
2023/08/09 04:55:11;;;;;;;8.70;7.17;;;;;;;-141.97;69.13;47394.16;5069933;28;20164;-82
2023/08/09 04:57:37;;;;;;;11.73;7.80;;;;;;;-141.97;69.88;47615.19;5055160;28;20233;-83
2023/08/09 05:00:06;;;;;;;10.03;7.10;;;;;;;-141.97;70.09;47549.84;5049234;28;20558;-85
2023/08/09 05:02:36;;;;;;;8.30;6.47;;;;;;;-141.97;69.29;47496.00;5039405;28;20534;-80
2023/08/09 05:05:06;;;;;;;10.20;7.00;;;;;;;-141.97;68.04;47419.13;5051610;28;20154;-79
2023/08/09 05:07:33;;;;;;;8.50;6.70;;;;;;;-141.97;66.94;47472.94;5055602;28;20584;-80
2023/08/09 05:10:00;;;;;;;6.77;6.07;;;;;;;-141.97;66.52;47517.16;5031301;28;20173;-81
2023/08/09 05:12:26;;;;;;;7.50;6.40;;;;;;;-141.97;66.90;47511.38;5064226;28;20692;-81
2023/08/09 05:14:52;;;;;;;8.20;6.13;;;;;;;-141.97;67.14;47449.88;5064072;28;20169;-81
2023/08/09 05:17:17;;;;;;;9.33;6.37;;;;;;;-141.97;66.31;47440.28;5032151;28;20281;-84
2023/08/09 05:19:44;;;;;;;13.67;6.40;;;;;;;-141.97;66.13;47497.94;5048438;28;20189;-79
2023/08/09 05:22:09;;;;;;;8.57;6.37;;;;;;;-141.97;65.67;47513.31;5049799;28;20165;-79
2023/08/09 05:24:35;;;;;;;7.70;6.43;;;;;;;-141.97;66.03;47447.97;5049194;28;20236;-80
2023/08/09 05:27:00;;;;;;;8.27;6.47;;;;;;;-141.97;64.17;47449.88;5048909;28;20244;-79
2023/08/09 05:29:25;;;;;;;9.10;6.47;;;;;;;-141.97;63.52;47530.59;5063990;28;20686;-79
2023/08/09 05:31:51;;;;;;;10.27;6.30;;;;;;;-141.97;64.40;47534.44;5084348;28;20187;-81
2023/08/09 05:34:16;;;;;;;13.37;5.80;;;;;;;-141.97;63.50;47553.69;5069174;28;20185;-79
2023/08/09 05:36:43;;;;;;;6.97;6.03;;;;;;;-141.97;62.55;47503.69;5069448;28;20648;-78
2023/08/09 05:39:08;;;;;;;8.47;5.90;;;;;;;-141.97;61.83;47515.22;5068825;28;20281;-79
2023/08/09 05:41:34;;;;;;;8.83;5.57;;;;;;;-141.97;62.44;47538.28;5069128;28;20582;-78
2023/08/09 05:44:00;;;;;;;6.63;5.57;;;;;;;-141.97;62.20;47461.41;5068519;28;20161;-79
2023/08/09 05:46:25;;;;;;;7.70;5.60;;;;;;;-141.97;60.73;47538.28;5070346;28;20171;-79
2023/08/09 05:48:50;;;;;;;5.90;4.93;;;;;;;-141.97;59.37;47530.59;5070337;28;20207;-79
2023/08/09 05:51:16;;;;;;;5.47;4.87;;;;;;;-141.97;59.60;47534.44;5071064;28;20919;-78
2023/08/09 05:53:42;;;;;;;6.07;4.80;;;;;;;-141.97;58.71;47436.44;5069291;28;20181;-79
2023/08/09 05:56:07;;;;;;;5.60;5.00;;;;;;;-141.97;59.18;47549.84;5068651;28;20192;-79
2023/08/09 05:58:32;;;;;;;6.33;5.00;;;;;;;-141.97;59.70;47517.16;5054812;28;20184;-79
2023/08/09 06:00:58;;;;;;;5.47;4.80;;;;;;;-141.97;58.90;47522.91;5069175;28;20168;-79
2023/08/09 06:03:23;;;;;;;10.40;7.33;;;;;;;-141.97;57.83;47497.94;5041333;28;20228;-80
2023/08/09 06:05:48;;;;;;;6.90;5.13;;;;;;;-141.97;56.80;47474.88;5068683;28;20531;-80
2023/08/09 06:08:14;;;;;;;8.13;4.93;;;;;;;-141.97;56.13;47467.19;5068445;28;20172;-79
2023/08/09 06:10:39;;;;;;;6.43;4.40;;;;;;;-141.97;56.92;47530.59;5068940;28;20218;-80
2023/08/09 06:13:05;;;;;;;5.07;4.57;;;;;;;-141.97;55.85;47507.53;5068488;28;20172;-79
2023/08/09 06:15:30;;;;;;;5.47;4.70;;;;;;;-141.97;55.21;47544.06;5083754;28;20181;-79
2023/08/09 06:17:56;;;;;;;5.03;4.53;;;;;;;-141.97;54.82;47509.47;5068462;28;20263;-79
2023/08/09 06:20:21;;;;;;;5.83;4.50;;;;;;;-141.97;55.12;47492.16;5068933;28;20678;-80
2023/08/09 06:22:48;;;;;;;10.20;4.67;;;;;;;-141.97;53.93;47645.94;5068725;28;20620;-80
2023/08/09 06:25:13;;;;;;;7.53;4.50;;;;;;;-141.97;53.27;47544.06;5069207;28;20165;-81
2023/08/09 06:27:39;;;;;;;4.40;4.00;;;;;;;-141.97;52.52;47492.16;5072372;28;20545;-80
2023/08/09 06:30:06;;;;;;;4.70;4.10;;;;;;;-141.97;52.43;47569.06;5071965;28;20184;-80
2023/08/09 06:32:32;;;;;;;6.47;4.30;;;;;;;-141.97;51.67;47472.94;5075114;28;20529;-80
2023/08/09 06:34:58;;;;;;;7.00;4.63;;;;;;;-141.97;50.30;47488.31;5073847;28;20165;-82
2023/08/09 06:37:24;;;;;;;5.50;5.00;;;;;;;-141.97;50.84;47503.69;5074740;28;20262;-81
2023/08/09 06:39:49;;;;;;;8.57;5.17;;;;;;;-141.97;49.65;47509.47;5053868;28;20196;-81
2023/08/09 06:42:16;;;;;;;5.10;4.40;;;;;;;-141.97;49.62;47465.25;5054652;28;20165;-81
2023/08/09 06:44:41;;;;;;;5.80;4.60;;;;;;;-141.97;50.29;47453.72;5073655;28;20152;-81
2023/08/09 06:47:07;;;;;;;6.43;4.67;;;;;;;-141.97;50.99;47501.78;5073089;28;20241;-81
2023/08/09 06:49:32;;;;;;;4.90;4.40;;;;;;;-141.97;49.77;47446.03;5068523;28;20273;-82
2023/08/09 06:52:00;;;;;;;5.50;4.20;;;;;;;-141.97;49.46;47419.13;5038232;28;20185;-82
2023/08/09 06:54:26;;;;;;;5.77;4.60;;;;;;;-141.97;49.12;47488.31;5051608;28;20181;-82
2023/08/09 06:56:54;;;;;;;4.93;4.43;;;;;;;-141.97;48.88;47672.84;5036149;28;20260;-82
2023/08/09 06:59:19;;;;;;;4.63;4.13;;;;;;;-141.97;47.79;47507.53;5044498;28;20216;-84
2023/08/09 07:01:48;;;;;;;5.27;4.33;;;;;;;-141.97;47.15;47471.03;5095174;28;20180;-84
2023/08/09 07:04:14;;;;;;;4.70;4.17;;;;;;;-141.97;45.93;47324.97;5067893;28;20235;-82
2023/08/09 07:06:42;;;;;;;6.40;4.53;;;;;;;-141.97;44.75;47620.94;5077453;28;20157;-82
2023/08/09 07:09:11;;;;;;;4.90;4.40;;;;;;;-141.97;44.34;47476.78;5071558;28;20169;-84
2023/08/09 07:11:36;;;;;;;6.40;4.40;;;;;;;-141.97;44.74;47432.59;5087716;28;20271;-82
2023/08/09 07:14:02;;;;;;;6.20;4.90;;;;;;;-141.97;44.39;47390.31;5073990;28;20267;-82
2023/08/09 07:16:27;;;;;;;8.93;4.70;;;;;;;-141.97;45.15;47230.78;5074441;28;20211;-81
2023/08/09 07:18:53;;;;;;;4.43;4.03;;;;;;;-141.97;44.44;47472.94;5073569;28;20577;-82
2023/08/09 07:21:18;;;;;;;4.87;4.37;;;;;;;-141.97;44.92;47490.25;5072636;28;20184;-82
2023/08/09 07:23:43;;;;;;;5.23;4.27;;;;;;;-141.97;45.05;47398.00;5071502;28;20188;-82
2023/08/09 07:26:09;;;;;;;5.37;3.83;;;;;;;-141.97;43.73;47465.25;5073456;28;20176;-83
2023/08/09 07:28:34;;;;;;;6.23;4.20;;;;;;;-141.97;42.46;47396.06;5089786;28;20165;-86
2023/08/09 07:31:00;;;;;;;4.47;4.00;;;;;;;-141.97;41.98;47634.41;5091694;28;20204;-85
2023/08/09 07:33:26;;;;;;;4.70;4.20;;;;;;;-141.97;41.55;47509.47;5070954;28;20207;-84
2023/08/09 07:35:51;;;;;;;5.40;4.27;;;;;;;-141.97;41.85;47200.03;5070776;28;20275;-84
2023/08/09 07:38:17;;;;;;;4.83;3.80;;;;;;;-141.97;42.36;47453.72;5069811;28;20947;-84
2023/08/09 07:40:42;;;;;;;4.50;4.10;;;;;;;-141.97;41.87;47373.00;5070086;28;20187;-85
2023/08/09 07:43:11;;;;;;;4.93;3.90;;;;;;;-141.97;40.55;47271.16;5070379;28;20185;-85
2023/08/09 07:45:37;;;;;;;4.50;3.70;;;;;;;-141.97;42.13;47630.56;5085850;28;20652;-84
2023/08/09 07:48:02;;;;;;;4.40;4.00;;;;;;;-141.97;40.89;47544.06;5053102;28;20183;-84
2023/08/09 07:50:28;;;;;;;4.30;3.90;;;;;;;-141.97;39.85;47622.88;5070379;28;20180;-85
2023/08/09 07:52:53;;;;;;;7.50;4.20;;;;;;;-141.97;39.77;47403.75;5052613;28;20184;-84
2023/08/09 07:55:19;;;;;;;5.53;3.90;;;;;;;-141.97;38.99;47557.53;5086630;28;20196;-84
2023/08/09 07:57:45;;;;;;;4.30;3.90;;;;;;;-141.97;38.42;47365.31;5056767;28;20291;-84
2023/08/09 08:00:12;;;;;;;5.73;3.63;;;;;;;-141.97;38.37;47557.53;5032497;28;20184;-83
2023/08/09 08:02:39;;;;;;;5.47;3.57;;;;;;;-141.97;37.42;47424.91;5044288;28;20235;-84
2023/08/09 08:05:06;;;;;;;5.97;3.67;;;;;;;-141.97;37.52;47628.63;5052689;28;20592;-84
2023/08/09 08:07:32;;;;;;;6.20;3.50;;;;;;;-141.97;37.01;47424.91;5057748;28;20650;-84
2023/08/09 08:09:58;;;;;;;5.47;3.57;;;;;;;-141.97;36.95;47411.44;5064538;28;20174;-84
2023/08/09 08:12:26;;;;;;;7.32;4.10;;;;;;;-141.97;37.68;47595.97;5069951;28;20178;-84
2023/08/09 08:14:52;;;;;;;5.50;3.80;;;;;;;-141.97;37.48;47394.16;5070500;28;20161;-84
2023/08/09 08:17:17;;;;;;;4.43;3.43;;;;;;;-141.97;36.83;47355.72;5070166;28;20242;-84
2023/08/09 08:19:43;;;;;;;3.60;3.30;;;;;;;-141.97;36.96;47296.13;5068994;28;20355;-81
2023/08/09 08:22:09;;;;;;;3.33;3.05;;;;;;;-141.97;36.72;47459.50;5070497;28;20330;-81
2023/08/09 08:24:34;;;;;;;4.80;3.35;;;;;;;-141.97;37.35;47384.53;5051600;28;20273;-82
2023/08/09 08:27:00;;;;;;;5.35;3.38;;;;;;;-141.97;37.30;47396.06;5069749;28;20493;-82
2023/08/09 08:29:25;;;;;;;4.78;3.60;;;;;;;-141.97;37.35;47574.81;5069454;28;20176;-83
2023/08/09 08:31:51;;;;;;;4.40;3.40;;;;;;;-141.97;37.45;47357.63;5069532;28;20177;-84
2023/08/09 08:34:19;;;;;;;4.47;3.50;;;;;;;-141.97;36.70;47426.81;5069796;28;20533;-83
2023/08/09 08:36:44;;;;;;;6.18;3.40;;;;;;;-141.97;36.50;47382.63;5069907;28;20189;-80
2023/08/09 08:39:14;;;;;;;4.28;3.40;;;;;;;-141.97;37.02;47401.84;5068823;28;20627;-82
2023/08/09 08:41:41;;;;;;;3.80;3.15;;;;;;;-141.97;37.66;47582.50;5069473;28;20195;-84
2023/08/09 08:44:07;;;;;;;5.53;3.92;;;;;;;-141.97;37.04;47349.94;5069046;28;20183;-84
2023/08/09 08:46:33;;;;;;;5.28;3.30;;;;;;;-141.97;36.75;47407.59;5069521;28;20187;-84
2023/08/09 08:49:00;;;;;;;4.60;3.50;;;;;;;-141.97;37.01;47394.16;5068966;28;20185;-84
2023/08/09 08:51:28;;;;;;;4.68;3.65;;;;;;;-141.97;36.83;47388.38;5072525;28;20162;-84
2023/08/09 08:53:54;;;;;;;4.28;3.40;;;;;;;-141.97;36.86;47415.28;5069702;28;20171;-84
2023/08/09 08:56:20;;;;;;;4.15;2.90;;;;;;;-141.97;36.13;47403.75;5057637;28;20806;-84
2023/08/09 08:58:46;;;;;;;7.05;5.07;;;;;;;-141.97;36.47;47497.94;5056856;28;20200;-82
2023/08/09 09:01:11;;;;;;;4.82;3.95;;;;;;;-141.97;36.86;47411.44;5071529;28;20164;-82
2023/08/09 09:03:37;;;;;;;2.92;2.70;;;;;;;-141.97;36.82;47369.16;5060048;28;20228;-83
2023/08/09 09:06:02;;;;;;;4.40;3.10;;;;;;;-141.97;37.06;47411.44;5069056;28;20162;-83
2023/08/09 09:08:28;;;;;;;3.10;2.70;;;;;;;-141.97;36.61;47357.63;5068885;28;20293;-82
2023/08/09 09:10:54;;;;;;;2.80;2.60;;;;;;;-141.97;36.28;47413.38;5068923;28;20168;-82
2023/08/09 09:13:27;;;;;;;2.80;2.60;;;;;;;-141.97;36.04;47376.84;5069241;28;20180;-82
2023/08/09 09:15:54;;;;;;;3.70;2.80;;;;;;;-141.97;36.73;47384.53;5068126;28;20228;-83
2023/08/09 09:18:20;;;;;;;3.60;2.72;;;;;;;-141.97;36.87;47403.75;5067944;28;20183;-83
2023/08/09 09:20:46;;;;;;;3.08;2.78;;;;;;;-141.97;36.76;47407.59;5068771;28;20180;-81
2023/08/09 09:23:24;;;;;;;3.53;2.78;;;;;;;-141.97;37.16;47415.28;5067762;28;20187;-81
2023/08/09 09:26:01;;;;;;;3.47;2.50;;;;;;;-141.97;36.54;47373.00;5068997;28;20221;-82
2023/08/09 09:28:26;;;;;;;4.22;2.58;;;;;;;-141.97;37.21;47384.53;5068585;28;20522;-79
2023/08/09 09:30:58;;;;;;;4.65;2.60;;;;;;;-141.97;36.32;47415.28;5068521;28;20172;-81
2023/08/09 09:33:37;;;;;;;2.88;2.50;;;;;;;-141.97;36.13;47357.63;5068318;28;20190;-80
2023/08/09 09:36:03;;;;;;;3.05;2.42;;;;;;;-141.97;36.07;47409.53;5068274;28;20206;-81
2023/08/09 09:38:29;;;;;;;3.03;2.50;;;;;;;-141.97;35.58;47382.63;5067805;28;20227;-81
2023/08/09 09:40:57;;;;;;;5.13;3.22;;;;;;;-141.97;35.37;47376.84;5074738;28;20345;-81
2023/08/09 09:43:24;;;;;;;5.22;3.33;;;;;;;-141.97;35.46;47373.00;5068822;28;20339;-81
2023/08/09 09:45:54;;;;;;;3.15;2.50;;;;;;;-141.97;35.30;47357.63;5068792;28;20198;-83
2023/08/09 09:48:20;;;;;;;3.30;2.30;;;;;;;-141.97;35.37;47388.38;5068521;28;20155;-81
2023/08/09 09:50:47;;;;;;;4.25;3.15;;;;;;;-141.97;35.15;47380.69;5072328;28;20672;-81
2023/08/09 09:53:14;;;;;;;2.60;2.40;;;;;;;-141.97;35.60;47349.94;5085737;28;20249;-80
2023/08/09 09:55:40;;;;;;;4.07;2.38;;;;;;;-141.97;35.17;47380.69;5075249;28;20175;-82
2023/08/09 09:58:06;;;;;;;2.40;2.20;;;;;;;-141.97;34.80;47388.38;5042832;28;20674;-81
2023/08/09 10:00:32;;;;;;;2.60;2.40;;;;;;;-141.97;35.23;47384.53;5047326;28;20183;-82
2023/08/09 10:03:02;;;;;;;4.53;2.35;;;;;;;-141.97;35.21;47340.34;5036183;28;20740;-81
2023/08/09 10:05:36;;;;;;;3.13;2.40;;;;;;;-141.97;35.76;47409.53;5050868;28;20170;-80
2023/08/09 10:08:10;;;;;;;3.80;3.08;;;;;;;-141.97;35.15;47411.44;5040358;28;20611;-81
2023/08/09 10:10:38;;;;;;;3.13;2.40;;;;;;;-141.97;35.20;47373.00;5051205;28;20211;-81
2023/08/09 10:13:05;;;;;;;2.50;2.28;;;;;;;-141.97;35.34;47384.53;5052085;28;20188;-80
2023/08/09 10:16:06;;;;;;;5.47;2.40;;;;;;;-141.97;34.80;47373.00;5046719;28;20202;-81
2023/08/09 10:18:42;;;;;;;2.63;2.42;;;;;;;-141.97;35.20;47376.84;5008956;28;20188;-80
2023/08/09 10:21:10;;;;;;;2.50;2.30;;;;;;;-141.97;35.12;47382.63;5008994;28;20842;-79
2023/08/09 10:23:36;;;;;;;3.60;2.30;;;;;;;-141.97;34.79;47376.84;5009956;28;20169;-79
2023/08/09 10:26:01;;;;;;;2.47;2.20;;;;;;;-141.97;34.76;47378.78;5009111;28;20197;-79
2023/08/09 10:28:39;;;;;;;2.55;2.30;;;;;;;-141.97;34.59;47405.69;5009438;28;20342;-81
2023/08/09 10:31:05;;;;;;;2.88;1.95;;;;;;;-141.97;34.48;47422.97;5008505;28;20191;-81
2023/08/09 10:33:33;;;;;;;2.67;2.00;;;;;;;-141.97;33.96;47413.38;4993283;28;20197;-82
2023/08/09 10:35:59;;;;;;;2.40;2.20;;;;;;;-141.97;33.25;47421.06;5009291;28;20279;-80
2023/08/09 10:38:30;;;;;;;2.20;2.00;;;;;;;-141.97;33.15;47357.63;5009116;28;20671;-82
2023/08/09 10:40:55;;;;;;;3.33;2.30;;;;;;;-141.97;33.49;47584.44;5008264;28;20362;-81
2023/08/09 10:43:23;;;;;;;2.75;2.20;;;;;;;-141.97;33.75;47390.31;5012649;28;20266;-81
2023/08/09 10:45:49;;;;;;;3.75;2.17;;;;;;;-141.97;33.78;47299.97;5031822;28;20212;-83
2023/08/09 10:48:25;;;;;;;2.22;2.03;;;;;;;-141.97;33.50;47384.53;5029657;28;20170;-84
2023/08/09 10:51:00;;;;;;;3.03;2.00;;;;;;;-141.97;33.63;47369.16;4999104;28;20879;-84
2023/08/09 10:53:27;;;;;;;2.28;2.08;;;;;;;-141.97;33.15;47409.53;5045422;28;20271;-84
2023/08/09 10:55:55;;;;;;;3.33;2.00;;;;;;;-141.97;33.40;47374.94;5050540;28;20245;-82
2023/08/09 10:58:27;;;;;;;5.25;2.20;;;;;;;-141.97;32.93;47398.00;5051094;28;20184;-84
2023/08/09 11:00:53;;;;;;;2.13;1.90;;;;;;;-141.97;32.25;47342.25;5064422;28;20273;-83
2023/08/09 11:03:20;;;;;;;1.95;1.83;;;;;;;-141.97;32.76;47398.00;5061130;28;20186;-83
2023/08/09 11:05:45;;;;;;;2.28;2.08;;;;;;;-141.97;32.39;47338.41;5070696;28;20536;-84
2023/08/09 11:08:16;;;;;;;2.10;1.90;;;;;;;-141.97;33.00;47549.84;5052799;28;20179;-82
2023/08/09 11:10:41;;;;;;;2.67;1.92;;;;;;;-141.97;32.15;47373.00;5050473;28;20167;-82
2023/08/09 11:13:08;;;;;;;3.05;2.20;;;;;;;-141.97;32.64;47538.28;5049781;28;20215;-82